createdAt,value
2022-10-07T00:12:06.685Z,11
2022-10-07T00:40:26.898Z,11
2022-10-07T01:08:42.032Z,11
2022-10-07T01:37:03.493Z,11
2022-10-07T02:05:24.880Z,10
2022-10-07T02:33:43.708Z,13
2022-10-07T03:02:05.422Z,10
2022-10-07T03:30:27.367Z,15
2022-10-07T03:58:43.413Z,10
2022-10-07T04:27:51.794Z,11
2022-10-07T04:56:08.452Z,11
2022-10-07T05:25:14.323Z,11
2022-10-07T05:54:10.933Z,13
2022-10-07T06:22:58.524Z,11
2022-10-07T06:51:57.949Z,10
2022-10-07T07:21:09.200Z,10
2022-10-07T07:50:09.379Z,11
2022-10-07T08:19:04.531Z,11
2022-10-07T08:48:05.744Z,11
2022-10-07T09:16:09.348Z,11
2022-10-07T09:45:36.121Z,11
2022-10-07T10:14:57.415Z,10
2022-10-07T10:43:59.894Z,11
2022-10-07T11:12:39.259Z,11
2022-10-07T11:41:21.778Z,11
2022-10-07T12:10:20.917Z,13
2022-10-07T12:39:20.235Z,10
2022-10-07T13:08:10.854Z,10
2022-10-07T13:36:59.062Z,10
2022-10-07T14:06:06.292Z,10
2022-10-07T14:34:52.696Z,10
2022-10-07T15:03:52.331Z,14
2022-10-07T15:32:41.569Z,11
2022-10-07T16:01:28.794Z,11
2022-10-07T16:30:15.831Z,14
2022-10-07T16:59:01.395Z,14
2022-10-07T17:27:12.523Z,16
2022-10-07T17:55:30.733Z,14
2022-10-07T18:24:31.128Z,17
2022-10-07T18:53:24.969Z,22
2022-10-07T19:22:18.219Z,23
2022-10-07T19:50:34.366Z,24
2022-10-07T20:18:56.666Z,21
2022-10-07T20:47:18.093Z,20
2022-10-07T21:15:26.152Z,20
2022-10-07T21:43:44.650Z,19
2022-10-07T22:12:03.668Z,17
2022-10-07T22:41:02.577Z,17
2022-10-07T23:09:55.997Z,17
2022-10-07T23:38:45.014Z,19
